createdAt,value
2018-01-22T00:01:03.738Z,8.50
2018-01-22T00:03:31.879Z,6.10
2018-01-22T00:06:00.796Z,5.13
2018-01-22T00:08:28.937Z,6.20
2018-01-22T00:10:57.636Z,4.93
2018-01-22T00:13:25.756Z,4.73
2018-01-22T00:15:54.756Z,5.03
2018-01-22T00:18:23.683Z,4.57
2018-01-22T00:20:51.860Z,4.43
2018-01-22T00:23:19.986Z,5.90
2018-01-22T00:25:48.477Z,5.10
2018-01-22T00:28:16.596Z,5.53
2018-01-22T00:30:44.754Z,6.30
2018-01-22T00:33:13.596Z,5.10
2018-01-22T00:35:42.525Z,6.00
2018-01-22T00:38:10.664Z,5.67
2018-01-22T00:40:38.828Z,5.43
2018-01-22T00:43:06.979Z,5.70
2018-01-22T00:45:35.111Z,5.30
2018-01-22T00:48:03.265Z,4.90
2018-01-22T00:50:32.183Z,5.97
2018-01-22T00:53:00.322Z,5.80
2018-01-22T00:55:29.252Z,4.63
2018-01-22T00:57:57.381Z,4.40
2018-01-22T01:00:25.562Z,4.80
2018-01-22T01:02:53.718Z,4.80
2018-01-22T01:05:21.832Z,4.63
2018-01-22T01:07:49.988Z,4.90
2018-01-22T01:10:18.116Z,5.70
2018-01-22T01:12:46.267Z,5.23
2018-01-22T01:15:14.408Z,5.30
2018-01-22T01:17:44.007Z,5.00
2018-01-22T01:20:13.649Z,5.10
2018-01-22T01:22:42.564Z,4.67
2018-01-22T01:25:10.712Z,3.83
2018-01-22T01:27:38.853Z,4.10
2018-01-22T01:30:07.040Z,4.80
2018-01-22T01:32:35.156Z,5.00
2018-01-22T01:35:03.308Z,5.00
2018-01-22T01:37:31.433Z,4.60
2018-01-22T01:40:00.344Z,5.30
2018-01-22T01:42:28.468Z,5.30
2018-01-22T01:44:56.652Z,5.50
2018-01-22T01:47:26.202Z,6.00
2018-01-22T01:49:54.342Z,6.03
2018-01-22T01:52:22.496Z,5.77
2018-01-22T01:54:50.649Z,6.57
2018-01-22T01:57:18.818Z,5.50
2018-01-22T01:59:47.743Z,6.60
2018-01-22T02:02:15.889Z,7.10
2018-01-22T02:04:44.800Z,5.87
2018-01-22T02:07:13.719Z,7.33
2018-01-22T02:09:41.880Z,6.27
2018-01-22T02:12:10.025Z,5.80
2018-01-22T02:14:38.168Z,6.60
2018-01-22T02:17:06.326Z,6.07
2018-01-22T02:19:34.462Z,6.40
2018-01-22T02:22:02.630Z,6.20
2018-01-22T02:24:31.517Z,5.77
2018-01-22T02:27:00.466Z,5.77
2018-01-22T02:29:28.580Z,6.90
2018-01-22T02:31:56.704Z,5.87
2018-01-22T02:34:26.123Z,7.07
2018-01-22T02:36:54.324Z,6.53
2018-01-22T02:39:22.443Z,6.57
2018-01-22T02:41:50.617Z,6.10
2018-01-22T02:44:18.785Z,6.07
2018-01-22T02:46:46.952Z,7.00
2018-01-22T02:49:15.104Z,6.50
2018-01-22T02:51:43.309Z,6.80
2018-01-22T02:54:11.496Z,6.30
2018-01-22T02:56:39.622Z,6.90
2018-01-22T02:59:07.787Z,7.00
2018-01-22T03:01:35.919Z,6.57
2018-01-22T03:04:04.045Z,7.30
2018-01-22T03:06:32.966Z,7.33
2018-01-22T03:09:01.868Z,7.10
2018-01-22T03:11:30.004Z,7.77
2018-01-22T03:13:59.143Z,7.67
2018-01-22T03:16:28.946Z,7.80
2018-01-22T03:18:57.864Z,7.63
2018-01-22T03:21:26.028Z,9.07
2018-01-22T03:23:54.183Z,7.90
2018-01-22T03:26:22.334Z,9.13
2018-01-22T03:28:51.239Z,8.23
2018-01-22T03:31:20.166Z,8.07
2018-01-22T03:33:48.337Z,7.93
2018-01-22T03:36:17.276Z,8.73
2018-01-22T03:38:45.416Z,7.73
2018-01-22T03:41:14.337Z,8.00
2018-01-22T03:43:42.470Z,8.13
2018-01-22T03:46:10.612Z,8.43
2018-01-22T03:48:38.937Z,7.73
2018-01-22T03:51:07.065Z,8.90
2018-01-22T03:53:35.545Z,8.47
2018-01-22T03:56:03.677Z,8.10
2018-01-22T03:58:31.806Z,8.70
2018-01-22T04:00:59.969Z,8.00
2018-01-22T04:03:28.114Z,8.60
2018-01-22T04:05:57.032Z,9.10
2018-01-22T04:08:26.559Z,9.20
2018-01-22T04:10:54.709Z,9.00
2018-01-22T04:13:22.865Z,8.97
2018-01-22T04:15:51.065Z,8.10
2018-01-22T04:18:19.208Z,8.67
2018-01-22T04:20:47.344Z,9.53
2018-01-22T04:23:15.512Z,7.97
2018-01-22T04:25:44.847Z,8.83
2018-01-22T04:28:13.960Z,9.17
2018-01-22T04:30:42.862Z,8.50
2018-01-22T04:33:11.449Z,7.33
2018-01-22T04:35:39.593Z,8.40
2018-01-22T04:38:07.764Z,8.57
2018-01-22T04:40:35.916Z,8.50
2018-01-22T04:43:04.064Z,8.50
2018-01-22T04:45:32.201Z,9.20
2018-01-22T04:48:01.143Z,9.27
2018-01-22T04:50:29.303Z,8.60
2018-01-22T04:52:57.449Z,8.70
2018-01-22T04:55:25.668Z,8.73
2018-01-22T04:57:54.049Z,9.07
2018-01-22T05:00:22.184Z,9.50
2018-01-22T05:02:50.340Z,9.23
2018-01-22T05:05:18.504Z,9.20
2018-01-22T05:07:46.660Z,9.17
2018-01-22T05:10:14.813Z,8.40
2018-01-22T05:12:42.996Z,8.07
2018-01-22T05:15:11.130Z,8.23
2018-01-22T05:17:39.281Z,9.23
2018-01-22T05:20:07.428Z,7.90
2018-01-22T05:22:35.565Z,8.47
2018-01-22T05:25:03.713Z,9.20
2018-01-22T05:27:31.855Z,8.40
2018-01-22T05:30:00.020Z,8.70
2018-01-22T05:32:28.167Z,8.30
2018-01-22T05:34:56.309Z,8.10
2018-01-22T05:37:25.093Z,8.50
2018-01-22T05:39:53.281Z,8.10
2018-01-22T05:42:21.456Z,7.90
2018-01-22T05:44:49.602Z,7.70
2018-01-22T05:47:17.761Z,7.70
2018-01-22T05:49:45.901Z,7.87
2018-01-22T05:52:14.033Z,8.13
2018-01-22T05:54:43.217Z,8.00
2018-01-22T05:57:11.372Z,8.10
2018-01-22T05:59:40.208Z,8.30
2018-01-22T06:02:08.359Z,8.60
2018-01-22T06:04:37.298Z,9.33
2018-01-22T06:07:05.417Z,9.33
2018-01-22T06:09:33.557Z,10.07
2018-01-22T06:12:01.703Z,9.47
2018-01-22T06:14:29.857Z,7.63
2018-01-22T06:16:58.006Z,8.03
2018-01-22T06:19:26.158Z,9.17
2018-01-22T06:21:54.277Z,7.77
2018-01-22T06:24:22.435Z,6.63
2018-01-22T06:26:50.569Z,7.00
2018-01-22T06:29:18.734Z,8.30
2018-01-22T06:31:46.862Z,8.57
2018-01-22T06:34:15.005Z,9.27
2018-01-22T06:36:43.921Z,9.20
2018-01-22T06:39:12.183Z,7.83
2018-01-22T06:41:41.196Z,8.30
2018-01-22T06:44:10.660Z,8.50
2018-01-22T06:46:38.809Z,9.03
2018-01-22T06:49:06.950Z,7.90
2018-01-22T06:51:35.113Z,8.80
2018-01-22T06:54:03.240Z,9.73
2018-01-22T06:56:32.154Z,9.40
2018-01-22T06:59:01.068Z,13.17
2018-01-22T07:01:29.218Z,11.97
2018-01-22T07:03:57.356Z,11.70
2018-01-22T07:06:25.522Z,10.87
2018-01-22T07:08:55.359Z,10.07
2018-01-22T07:11:23.549Z,10.40
2018-01-22T07:13:51.725Z,10.73
2018-01-22T07:16:19.883Z,12.83
2018-01-22T07:18:48.799Z,10.27
2018-01-22T07:21:17.749Z,11.50
2018-01-22T07:23:45.893Z,14.37
2018-01-22T07:26:14.023Z,14.23
2018-01-22T07:28:42.185Z,10.70
2018-01-22T07:31:10.316Z,10.00
2018-01-22T07:33:42.147Z,11.10
2018-01-22T07:36:10.292Z,11.97
2018-01-22T07:38:39.226Z,12.43
2018-01-22T07:41:07.384Z,13.93
2018-01-22T07:43:36.320Z,12.90
2018-01-22T07:46:04.465Z,13.00
2018-01-22T07:48:33.397Z,12.67
2018-01-22T07:51:05.943Z,12.20
2018-01-22T07:53:34.903Z,12.80
2018-01-22T07:56:03.045Z,12.43
2018-01-22T07:58:32.984Z,12.10
2018-01-22T08:01:01.129Z,12.97
2018-01-22T08:03:29.275Z,13.43
2018-01-22T08:05:58.986Z,13.57
2018-01-22T08:08:27.116Z,13.60
2018-01-22T08:10:56.036Z,15.03
2018-01-22T08:13:24.176Z,14.33
2018-01-22T08:15:53.210Z,18.47
2018-01-22T08:18:21.348Z,17.10
2018-01-22T08:20:49.550Z,13.70
2018-01-22T08:23:18.463Z,12.97
2018-01-22T08:25:48.066Z,12.97
2018-01-22T08:28:16.989Z,12.20
2018-01-22T08:30:45.982Z,14.10
2018-01-22T08:33:14.128Z,12.63
2018-01-22T08:35:42.281Z,14.17
2018-01-22T08:38:10.470Z,15.80
2018-01-22T08:40:38.612Z,13.97
2018-01-22T08:43:07.544Z,13.07
2018-01-22T08:45:35.692Z,14.00
2018-01-22T08:48:03.841Z,14.40
2018-01-22T08:50:31.973Z,14.03
2018-01-22T08:53:00.161Z,14.10
2018-01-22T08:55:28.920Z,13.40
2018-01-22T08:57:57.098Z,13.67
2018-01-22T09:00:25.268Z,14.20
2018-01-22T09:02:53.407Z,13.40
2018-01-22T09:05:21.564Z,13.83
2018-01-22T09:07:49.708Z,15.47
2018-01-22T09:10:18.621Z,16.60
2018-01-22T09:12:46.752Z,23.30
2018-01-22T09:15:14.928Z,24.07
2018-01-22T09:17:43.080Z,22.27
2018-01-22T09:20:11.224Z,22.43
2018-01-22T09:22:39.397Z,15.73
2018-01-22T09:25:07.544Z,14.67
2018-01-22T09:27:35.753Z,15.00
2018-01-22T09:30:03.922Z,22.00
2018-01-22T09:32:32.069Z,14.30
2018-01-22T09:35:01.033Z,13.57
2018-01-22T09:37:29.163Z,13.40
2018-01-22T09:39:57.314Z,14.83
2018-01-22T09:42:25.458Z,13.30
2018-01-22T09:44:53.649Z,14.37
2018-01-22T09:47:21.800Z,15.07
2018-01-22T09:49:50.930Z,13.93
2018-01-22T09:52:19.844Z,14.40
2018-01-22T09:54:48.009Z,12.40
2018-01-22T09:57:16.131Z,10.97
2018-01-22T09:59:44.286Z,8.27
2018-01-22T10:02:12.421Z,5.83
2018-01-22T10:04:40.594Z,6.20
2018-01-22T10:07:08.779Z,5.37
2018-01-22T10:09:36.932Z,5.87
2018-01-22T10:12:05.833Z,4.97
2018-01-22T10:14:34.719Z,4.70
2018-01-22T10:17:03.659Z,4.00
2018-01-22T10:19:31.805Z,4.80
2018-01-22T10:21:59.974Z,4.00
2018-01-22T10:24:28.113Z,4.07
2018-01-22T10:26:56.269Z,4.20
2018-01-22T10:29:24.420Z,4.40
2018-01-22T10:31:52.569Z,4.93
2018-01-22T10:34:21.491Z,4.33
2018-01-22T10:36:49.630Z,4.03
2018-01-22T10:39:17.781Z,4.13
2018-01-22T10:41:45.916Z,4.10
2018-01-22T10:44:14.048Z,2.90
2018-01-22T10:46:42.201Z,3.20
2018-01-22T10:49:11.086Z,3.63
2018-01-22T10:51:39.258Z,3.90
2018-01-22T10:54:07.412Z,3.30
2018-01-22T10:56:35.551Z,3.30
2018-01-22T10:59:04.449Z,3.30
2018-01-22T11:01:32.623Z,3.40
2018-01-22T11:04:00.775Z,3.30
2018-01-22T11:06:28.912Z,3.40
2018-01-22T11:08:59.115Z,3.23
2018-01-22T11:11:27.272Z,3.03
2018-01-22T11:13:55.469Z,3.37
2018-01-22T11:16:23.589Z,3.10
2018-01-22T11:18:51.817Z,3.77
2018-01-22T11:21:20.725Z,4.10
2018-01-22T11:23:48.872Z,3.00
2018-01-22T11:26:17.022Z,3.20
2018-01-22T11:28:45.204Z,3.00
2018-01-22T11:31:13.349Z,2.97
2018-01-22T11:33:42.269Z,2.77
2018-01-22T11:36:10.416Z,3.40
2018-01-22T11:38:38.557Z,2.73
2018-01-22T11:41:06.708Z,2.80
2018-01-22T11:43:35.620Z,2.57
2018-01-22T11:46:04.556Z,3.00
2018-01-22T11:48:32.701Z,4.23
2018-01-22T11:51:00.845Z,3.80
2018-01-22T11:53:28.985Z,4.80
2018-01-22T11:55:57.152Z,5.83
2018-01-22T11:58:25.809Z,6.90
2018-01-22T12:00:53.964Z,5.53
2018-01-22T12:03:22.114Z,8.87
2018-01-22T12:05:50.257Z,9.93
2018-01-22T12:08:19.225Z,9.00
2018-01-22T12:10:48.140Z,7.60
2018-01-22T12:13:16.309Z,7.97
2018-01-22T12:15:45.218Z,6.97
2018-01-22T12:18:14.977Z,6.17
2018-01-22T12:20:43.099Z,7.97
2018-01-22T12:23:12.148Z,5.77
2018-01-22T12:25:40.330Z,5.30
2018-01-22T12:28:09.284Z,5.17
2018-01-22T12:30:37.414Z,5.93
2018-01-22T12:33:06.345Z,6.10
2018-01-22T12:35:34.503Z,5.13
2018-01-22T12:38:03.412Z,5.00
2018-01-22T12:40:32.328Z,5.23
2018-01-22T12:43:00.465Z,4.70
2018-01-22T12:45:29.484Z,5.70
2018-01-22T12:47:57.622Z,4.20
2018-01-22T12:50:26.627Z,3.70
2018-01-22T12:52:54.803Z,4.63
2018-01-22T12:55:22.969Z,4.17
2018-01-22T12:57:51.123Z,3.80
2018-01-22T13:00:19.347Z,4.17
2018-01-22T13:02:47.513Z,4.30
2018-01-22T13:05:16.293Z,3.37
2018-01-22T13:07:44.447Z,3.67
2018-01-22T13:10:12.611Z,4.30
2018-01-22T13:12:41.893Z,4.03
2018-01-22T13:15:10.055Z,3.50
2018-01-22T13:17:38.214Z,3.90
2018-01-22T13:20:07.457Z,3.63
2018-01-22T13:22:35.589Z,4.40
2018-01-22T13:25:03.757Z,3.60
2018-01-22T13:27:31.924Z,3.80
2018-01-22T13:30:00.051Z,3.60
2018-01-22T13:32:30.651Z,3.97
2018-01-22T13:34:58.784Z,3.83
2018-01-22T13:37:27.684Z,6.03
2018-01-22T13:40:02.437Z,9.77
2018-01-22T13:42:30.605Z,9.70
2018-01-22T13:45:00.140Z,9.10
2018-01-22T13:47:28.292Z,7.37
2018-01-22T13:49:56.453Z,7.57
2018-01-22T13:52:25.510Z,6.03
2018-01-22T13:54:54.410Z,5.53
2018-01-22T13:57:23.336Z,4.70
2018-01-22T13:59:51.483Z,4.87
2018-01-22T14:02:20.436Z,4.87
2018-01-22T14:04:48.565Z,4.50
2018-01-22T14:07:16.747Z,4.20
2018-01-22T14:09:44.921Z,4.20
2018-01-22T14:12:13.083Z,4.20
2018-01-22T14:14:41.838Z,3.77
2018-01-22T14:17:09.974Z,3.70
2018-01-22T14:19:38.135Z,4.07
2018-01-22T14:22:06.269Z,2.90
2018-01-22T14:24:35.313Z,3.20
2018-01-22T14:27:03.483Z,3.17
2018-01-22T14:29:32.474Z,3.03
2018-01-22T14:32:00.637Z,2.70
2018-01-22T14:34:28.790Z,2.90
2018-01-22T14:36:56.921Z,2.87
2018-01-22T14:39:25.108Z,2.37
2018-01-22T14:41:53.258Z,2.30
2018-01-22T14:44:21.400Z,2.40
2018-01-22T14:46:49.559Z,2.50
2018-01-22T14:49:17.723Z,2.23
2018-01-22T14:51:45.864Z,2.97
2018-01-22T14:54:15.663Z,2.93
2018-01-22T14:56:43.830Z,4.93
2018-01-22T14:59:11.973Z,6.43
2018-01-22T15:01:41.512Z,9.93
2018-01-22T15:04:09.680Z,10.83
2018-01-22T15:06:37.824Z,16.47
2018-01-22T15:09:05.959Z,21.90
2018-01-22T15:11:34.913Z,21.07
2018-01-22T15:14:03.096Z,7.40
2018-01-22T15:16:31.225Z,5.13
2018-01-22T15:19:00.140Z,5.50
2018-01-22T15:21:29.075Z,10.50
2018-01-22T15:23:57.257Z,17.10
2018-01-22T15:26:26.105Z,20.37
2018-01-22T15:28:54.281Z,20.50
2018-01-22T15:31:22.468Z,21.83
2018-01-22T15:33:50.628Z,25.90
2018-01-22T15:36:18.801Z,25.50
2018-01-22T15:38:46.988Z,18.83
2018-01-22T15:41:15.189Z,19.13
2018-01-22T15:43:43.316Z,19.23
2018-01-22T15:46:12.238Z,12.30
2018-01-22T15:48:41.137Z,12.43
2018-01-22T15:51:11.448Z,12.63
2018-01-22T15:53:39.609Z,15.17
2018-01-22T15:56:08.538Z,13.80
2018-01-22T15:58:36.687Z,16.20
2018-01-22T16:01:05.614Z,20.10
2018-01-22T16:03:33.780Z,19.50
2018-01-22T16:06:02.794Z,18.90
2018-01-22T16:08:30.976Z,16.00
2018-01-22T16:10:59.144Z,14.90
2018-01-22T16:13:27.306Z,14.33
2018-01-22T16:15:55.505Z,15.13
2018-01-22T16:18:23.687Z,30.53
2018-01-22T16:20:51.858Z,14.23
2018-01-22T16:23:20.023Z,11.77
2018-01-22T16:25:48.182Z,16.83
2018-01-22T16:28:16.357Z,16.00
2018-01-22T16:30:44.504Z,13.97
2018-01-22T16:33:12.668Z,21.80
2018-01-22T16:35:40.843Z,24.60
2018-01-22T16:38:09.009Z,23.00
2018-01-22T16:40:37.172Z,29.00
2018-01-22T16:43:05.357Z,23.53
2018-01-22T16:45:33.500Z,25.63
2018-01-22T16:48:01.679Z,27.37
2018-01-22T16:50:29.824Z,27.70
2018-01-22T16:52:58.070Z,29.30
2018-01-22T16:55:26.196Z,23.40
2018-01-22T16:57:54.410Z,16.00
2018-01-22T17:00:22.589Z,18.23
2018-01-22T17:02:50.721Z,12.23
2018-01-22T17:05:18.897Z,12.40
2018-01-22T17:07:47.087Z,9.67
2018-01-22T17:10:15.270Z,11.10
2018-01-22T17:12:43.418Z,9.37
2018-01-22T17:15:12.164Z,8.23
2018-01-22T17:17:40.354Z,22.47
2018-01-22T17:20:09.132Z,28.03
2018-01-22T17:22:37.274Z,25.23
2018-01-22T17:25:05.459Z,26.07
2018-01-22T17:27:33.604Z,25.40
2018-01-22T17:30:01.881Z,25.80
2018-01-22T17:32:30.021Z,27.77
2018-01-22T17:34:58.980Z,27.83
2018-01-22T17:37:28.016Z,26.03
2018-01-22T17:39:57.883Z,29.30
2018-01-22T17:42:26.822Z,27.60
2018-01-22T17:44:55.032Z,27.10
2018-01-22T17:47:23.177Z,26.90
2018-01-22T17:49:51.950Z,27.40
2018-01-22T17:52:20.148Z,27.90
2018-01-22T17:54:49.974Z,26.90
2018-01-22T17:57:18.941Z,25.47
2018-01-22T17:59:47.858Z,24.10
2018-01-22T18:02:16.062Z,23.33
2018-01-22T18:04:44.201Z,22.50
2018-01-22T18:07:13.297Z,22.53
2018-01-22T18:09:41.470Z,22.00
2018-01-22T18:12:09.644Z,22.20
2018-01-22T18:14:37.802Z,24.20
2018-01-22T18:17:05.960Z,23.80
2018-01-22T18:19:35.099Z,27.10
2018-01-22T18:22:04.907Z,26.97
2018-01-22T18:24:33.851Z,25.37
2018-01-22T18:27:02.051Z,24.40
2018-01-22T18:29:30.238Z,23.17
2018-01-22T18:31:58.428Z,23.00
2018-01-22T18:34:26.615Z,22.40
2018-01-22T18:36:54.742Z,21.60
2018-01-22T18:39:23.687Z,20.53
2018-01-22T18:41:51.846Z,22.20
2018-01-22T18:44:20.769Z,21.30
2018-01-22T18:46:48.954Z,20.27
2018-01-22T18:49:17.219Z,21.23
2018-01-22T18:51:46.167Z,21.47
2018-01-22T18:54:14.331Z,21.60
2018-01-22T18:56:42.498Z,21.27
2018-01-22T18:59:11.471Z,19.47
2018-01-22T19:01:39.644Z,21.67
2018-01-22T19:04:07.809Z,20.10
2018-01-22T19:06:36.724Z,19.80
2018-01-22T19:09:04.873Z,19.63
2018-01-22T19:11:33.083Z,20.20
2018-01-22T19:14:01.248Z,19.17
2018-01-22T19:16:29.449Z,19.73
2018-01-22T19:18:57.625Z,19.23
2018-01-22T19:21:25.793Z,21.47
2018-01-22T19:23:54.717Z,18.73
2018-01-22T19:26:23.654Z,20.63
2018-01-22T19:28:51.800Z,20.07
2018-01-22T19:31:19.978Z,21.57
2018-01-22T19:33:48.932Z,23.57
2018-01-22T19:36:17.133Z,21.93
2018-01-22T19:38:45.301Z,20.07
2018-01-22T19:41:13.476Z,19.87
2018-01-22T19:43:41.660Z,18.60
2018-01-22T19:46:09.817Z,16.27
2018-01-22T19:48:38.750Z,14.97
2018-01-22T19:51:06.952Z,14.83
2018-01-22T19:53:35.708Z,14.23
2018-01-22T19:56:04.630Z,14.03
2018-01-22T19:58:32.893Z,13.90
2018-01-22T20:01:01.080Z,14.07
2018-01-22T20:03:30.166Z,12.73
2018-01-22T20:05:58.317Z,14.83
2018-01-22T20:08:27.271Z,14.10
2018-01-22T20:10:56.194Z,13.60
2018-01-22T20:13:25.134Z,11.57
2018-01-22T20:15:54.153Z,11.40
2018-01-22T20:18:22.357Z,11.87
2018-01-22T20:20:51.194Z,11.27
2018-01-22T20:23:20.148Z,9.07
2018-01-22T20:25:49.511Z,8.93
2018-01-22T20:28:19.293Z,9.27
2018-01-22T20:30:48.323Z,9.03
2018-01-22T20:33:16.462Z,8.30
2018-01-22T20:35:44.671Z,8.83
2018-01-22T20:38:12.797Z,8.00
2018-01-22T20:40:41.824Z,7.40
2018-01-22T20:43:09.956Z,7.10
2018-01-22T20:45:38.148Z,7.80
2018-01-22T20:48:06.317Z,7.97
2018-01-22T20:50:34.461Z,7.53
2018-01-22T20:53:03.101Z,7.40
2018-01-22T20:55:31.241Z,7.07
2018-01-22T20:58:00.174Z,9.73
2018-01-22T21:00:28.328Z,7.40
2018-01-22T21:02:57.274Z,7.13
2018-01-22T21:05:25.417Z,8.60
2018-01-22T21:07:53.609Z,7.57
2018-01-22T21:10:22.512Z,7.50
2018-01-22T21:12:52.005Z,7.30
2018-01-22T21:15:21.084Z,6.80
2018-01-22T21:17:49.266Z,6.83
2018-01-22T21:20:18.019Z,5.97
2018-01-22T21:22:46.957Z,5.70
2018-01-22T21:25:15.122Z,5.13
2018-01-22T21:27:43.968Z,5.40
2018-01-22T21:30:12.137Z,6.23
2018-01-22T21:32:40.282Z,5.77
2018-01-22T21:35:09.231Z,5.10
2018-01-22T21:37:37.388Z,5.27
2018-01-22T21:40:05.549Z,5.40
2018-01-22T21:42:34.482Z,5.37
2018-01-22T21:45:02.637Z,6.33
2018-01-22T21:47:30.784Z,5.80
2018-01-22T21:49:59.780Z,5.67
2018-01-22T21:52:27.964Z,5.30
2018-01-22T21:54:56.125Z,5.80
2018-01-22T21:57:25.058Z,6.50
2018-01-22T21:59:53.214Z,5.00
2018-01-22T22:02:22.145Z,5.87
2018-01-22T22:04:51.105Z,6.00
2018-01-22T22:07:19.258Z,4.70
2018-01-22T22:09:47.459Z,4.93
2018-01-22T22:12:15.552Z,5.57
2018-01-22T22:14:43.703Z,6.00
2018-01-22T22:17:11.861Z,6.30
2018-01-22T22:19:40.007Z,7.50
2018-01-22T22:22:08.154Z,7.47
2018-01-22T22:24:36.325Z,6.43
2018-01-22T22:27:04.449Z,7.73
2018-01-22T22:29:32.650Z,6.17
2018-01-22T22:32:00.779Z,6.00
2018-01-22T22:34:28.896Z,6.10
2018-01-22T22:36:57.066Z,6.57
2018-01-22T22:39:25.193Z,5.90
2018-01-22T22:41:53.349Z,6.27
2018-01-22T22:44:21.465Z,6.73
2018-01-22T22:46:49.640Z,8.40
2018-01-22T22:49:18.552Z,6.70
2018-01-22T22:51:46.685Z,6.80
2018-01-22T22:54:14.824Z,7.83
2018-01-22T22:56:42.978Z,7.47
2018-01-22T22:59:11.124Z,7.00
2018-01-22T23:01:40.084Z,7.63
2018-01-22T23:04:08.291Z,7.67
2018-01-22T23:06:36.425Z,8.40
2018-01-22T23:09:04.574Z,7.47
2018-01-22T23:11:33.482Z,8.67
2018-01-22T23:14:01.633Z,8.60
2018-01-22T23:16:30.570Z,8.50
2018-01-22T23:18:58.712Z,7.40
2018-01-22T23:21:26.851Z,8.07
2018-01-22T23:23:55.786Z,7.53
2018-01-22T23:26:23.921Z,8.00
2018-01-22T23:28:52.059Z,7.93
2018-01-22T23:31:20.239Z,7.33
2018-01-22T23:33:48.369Z,7.00
2018-01-22T23:36:16.538Z,7.00
2018-01-22T23:38:44.673Z,7.50
2018-01-22T23:41:14.177Z,7.60
2018-01-22T23:43:42.351Z,7.63
2018-01-22T23:46:12.021Z,6.93
2018-01-22T23:48:40.153Z,6.90
2018-01-22T23:51:08.327Z,6.60
2018-01-22T23:53:36.468Z,6.70
2018-01-22T23:56:05.364Z,6.63
2018-01-22T23:58:33.508Z,7.20
